KVOK/VOK METAR and TAF weather

Enter ICAO airport designator
Station Type Date Time Source
KVOK METAR 2019/10/21 02:56 UTC NOAA

KVOK 210256Z AUTO 10003KT 10SM CLR 06/06 A2988 RMK AO2 SLP128 T00630063 57005


Station Type Date Time Source
KVOK Decoded METAR 2019/10/21 02:56 UTC NOAA

Volk / Camp Douglas, WI, United States (KVOK) 43-56N 090-16W
Oct 20, 2019 - 10:56 PM EDT / 2019.10.21 0256 UTC
Wind: from the E (100 degrees) at 3 MPH (3 KT):0
Visibility: 10 mile(s):0
Sky conditions: clear
Temperature: 43.3 F (6.3 C)
Dew Point: 43.3 F (6.3 C)
Relative Humidity: 100%
Pressure (altimeter): 29.88 in. Hg (1011 hPa)
Pressure tendency: 0.01 inches (0.5 hPa) lower than three hours ago
ob: KVOK 210256Z AUTO 10003KT 10SM CLR 06/06 A2988 RMK AO2 SLP128 T00630063 57005
cycle: 3

Station Type Date Time Source
KVOK TAF 2019/10/18 17:13 UTC NOAA

TAF KVOK 181700Z 1817/1923 15012G18KT 9999 FEW250 QNH2977INS
TEMPO 1817/1822 15015G25KT
BECMG 1822/1823 17010KT 9999 FEW100 WS020/19045KT QNH2973INS
BECMG 1908/1909 18009KT 9000 -SHRA BKN020 OVC040 QNH2974INS
BECMG 1913/1914 20009KT 6000 -SHRA BKN010 OVC020 QNH2975INS
BECMG 1918/1919 22006KT 9999 NSW BKN020 OVC040 QNH2976INS TX15/1821Z TN07/1912Z LAST NO
AMDS AFT 1821 NEXT 2109

Example: see airport list